Terminal Aerodrome Forecast
Issued by NWS

Home | Current Version | Previous Version | Text Only | Print | Product List | Glossary On
Versions: 1 2 3 4 5 6 7 8 9 10 11 12
000
FTUS42 TJSJ 232329
TAFJPS
TAF
TJPS 232329Z 2400/2424 14010KT P6SM SCT020 SCT040
     FM240300 06002KT P6SM SCT050
     FM241500 13012KT P6SM FEW030 SCT060
      AMD NOT SKED TIL 240300=

USA.gov is the U.S. government's official web portal to all federal, state and local government web resources and services.